Time;durP1;ratioP1;P1;durP2;ratioP2;P2;SDS_P1;SDS_P2;PMS_P1;PMS_P2;Temp;Humidity;BMP_temperature;BMP_pressure;BME280_temperature;BME280_humidity;BME280_pressure;Samples;Min_cycle;Max_cycle;Signal;HPM_P1;HPM_P2
2023/06/02 00:01:31;;;;;;;10.10;7.95;;;;;;;;;;5105820;27;20031;-79
2023/06/02 00:03:57;;;;;;;12.95;7.75;;;;;;;;;;5122590;27;20027;-81
2023/06/02 00:06:26;;;;;;;10.82;7.60;;;;;;;;;;5125500;27;20350;-78
2023/06/02 00:08:52;;;;;;;9.10;8.20;;;;;;;;;;5123035;27;20043;-80
2023/06/02 00:11:18;;;;;;;9.35;7.07;;;;;;;;;;5121455;27;20042;-80
2023/06/02 00:13:44;;;;;;;10.23;8.18;;;;;;;;;;5123978;27;20059;-80
2023/06/02 00:16:10;;;;;;;9.00;7.70;;;;;;;;;;5122731;27;20074;-81
2023/06/02 00:18:37;;;;;;;8.60;7.70;;;;;;;;;;5121838;27;20031;-83
2023/06/02 00:21:04;;;;;;;7.88;7.10;;;;;;;;;;5119157;27;20445;-80
2023/06/02 00:23:29;;;;;;;9.10;7.72;;;;;;;;;;5118533;27;20472;-78
2023/06/02 00:25:55;;;;;;;9.93;7.50;;;;;;;;;;5110198;27;20027;-78
2023/06/02 00:28:21;;;;;;;9.45;8.00;;;;;;;;;;5122777;27;20020;-81
2023/06/02 00:30:46;;;;;;;10.02;8.00;;;;;;;;;;5120255;27;20106;-79
2023/06/02 00:33:12;;;;;;;13.20;8.02;;;;;;;;;;5106160;27;20138;-78
2023/06/02 00:35:37;;;;;;;10.57;7.13;;;;;;;;;;5121380;27;20019;-78
2023/06/02 00:38:04;;;;;;;10.52;8.32;;;;;;;;;;5122453;27;20033;-78
2023/06/02 00:40:30;;;;;;;11.27;8.05;;;;;;;;;;5123093;27;20024;-81
2023/06/02 00:42:55;;;;;;;11.55;7.82;;;;;;;;;;5121511;27;20023;-83
2023/06/02 00:45:20;;;;;;;9.23;8.05;;;;;;;;;;5117935;27;20030;-81
2023/06/02 00:47:46;;;;;;;9.55;8.55;;;;;;;;;;5103149;27;20069;-77
2023/06/02 00:50:11;;;;;;;11.75;8.10;;;;;;;;;;5117040;27;20515;-84
2023/06/02 00:52:38;;;;;;;9.40;7.93;;;;;;;;;;5122991;27;20035;-81
2023/06/02 00:55:03;;;;;;;9.75;7.57;;;;;;;;;;5104002;27;20084;-78
2023/06/02 00:57:29;;;;;;;8.73;7.93;;;;;;;;;;5122104;27;20014;-80
2023/06/02 00:59:55;;;;;;;11.32;7.90;;;;;;;;;;5123830;27;20027;-78
2023/06/02 01:02:21;;;;;;;9.77;7.70;;;;;;;;;;5120459;27;20015;-79
2023/06/02 01:04:47;;;;;;;10.50;8.05;;;;;;;;;;5120060;27;20158;-82
2023/06/02 01:07:13;;;;;;;8.30;7.43;;;;;;;;;;5115306;27;20055;-78
2023/06/02 01:09:39;;;;;;;8.48;7.53;;;;;;;;;;5112364;27;20023;-78
2023/06/02 01:12:06;;;;;;;15.80;7.82;;;;;;;;;;5123566;27;20110;-80
2023/06/02 01:14:31;;;;;;;10.00;7.78;;;;;;;;;;5119673;27;20027;-82
2023/06/02 01:16:57;;;;;;;13.27;8.50;;;;;;;;;;5119684;27;20024;-80
2023/06/02 01:19:25;;;;;;;13.15;8.35;;;;;;;;;;5109005;27;20426;-78
2023/06/02 01:22:01;;;;;;;9.18;7.93;;;;;;;;;;5117969;27;20550;-79
2023/06/02 01:24:29;;;;;;;14.55;8.05;;;;;;;;;;5119047;27;20019;-81
2023/06/02 01:26:55;;;;;;;10.45;8.00;;;;;;;;;;5119992;27;20038;-78
2023/06/02 01:29:20;;;;;;;10.90;8.38;;;;;;;;;;5109864;27;20345;-79
2023/06/02 01:31:48;;;;;;;10.48;8.20;;;;;;;;;;5115552;27;20035;-80
2023/06/02 01:34:19;;;;;;;10.35;7.45;;;;;;;;;;5120302;27;20066;-78
2023/06/02 01:36:46;;;;;;;10.07;7.95;;;;;;;;;;5122983;27;20027;-79
2023/06/02 01:39:12;;;;;;;8.75;7.95;;;;;;;;;;5119757;27;20140;-80
2023/06/02 01:41:41;;;;;;;9.52;8.45;;;;;;;;;;5117797;27;20423;-80
2023/06/02 01:44:07;;;;;;;9.60;8.60;;;;;;;;;;5120118;27;20031;-79
2023/06/02 01:46:33;;;;;;;8.68;7.68;;;;;;;;;;5119326;27;20458;-77
2023/06/02 01:48:58;;;;;;;11.38;9.15;;;;;;;;;;5122239;27;20513;-83
2023/06/02 01:51:23;;;;;;;14.70;8.10;;;;;;;;;;5119724;27;20031;-81
2023/06/02 01:53:49;;;;;;;11.05;7.93;;;;;;;;;;5104188;27;20039;-79
2023/06/02 01:56:14;;;;;;;8.65;7.80;;;;;;;;;;5120004;27;20027;-83
2023/06/02 01:58:40;;;;;;;8.95;7.55;;;;;;;;;;5110788;27;20420;-80
2023/06/02 02:01:06;;;;;;;12.82;8.40;;;;;;;;;;5096112;27;20327;-78
2023/06/02 02:03:32;;;;;;;8.77;7.68;;;;;;;;;;5121467;27;20088;-80
2023/06/02 02:05:58;;;;;;;11.45;8.10;;;;;;;;;;5119867;27;20137;-81
2023/06/02 02:08:23;;;;;;;11.65;8.35;;;;;;;;;;5115061;27;20490;-84
2023/06/02 02:10:48;;;;;;;9.27;7.97;;;;;;;;;;5106787;27;20040;-80
2023/06/02 02:13:14;;;;;;;11.38;8.70;;;;;;;;;;5114885;27;20351;-80
2023/06/02 02:15:39;;;;;;;9.60;8.60;;;;;;;;;;5105353;27;20341;-82
2023/06/02 02:18:05;;;;;;;10.85;8.65;;;;;;;;;;5091307;27;20031;-80
2023/06/02 02:20:30;;;;;;;11.35;8.20;;;;;;;;;;5119511;27;20418;-78
2023/06/02 02:22:56;;;;;;;11.43;8.80;;;;;;;;;;5121628;27;20082;-78
2023/06/02 02:25:21;;;;;;;9.32;8.15;;;;;;;;;;5119511;27;20334;-79
2023/06/02 02:27:47;;;;;;;12.40;8.48;;;;;;;;;;5121518;27;20034;-78
2023/06/02 02:30:12;;;;;;;15.63;8.45;;;;;;;;;;5115775;27;20083;-80
2023/06/02 02:32:43;;;;;;;10.88;8.65;;;;;;;;;;5116857;27;20035;-82
2023/06/02 02:35:09;;;;;;;16.92;7.82;;;;;;;;;;5118760;27;20027;-82
2023/06/02 02:37:36;;;;;;;12.07;8.00;;;;;;;;;;5120604;27;20031;-83
2023/06/02 02:40:01;;;;;;;8.88;7.45;;;;;;;;;;5121063;27;20130;-82
2023/06/02 02:42:26;;;;;;;10.65;7.40;;;;;;;;;;5117927;27;20422;-80
2023/06/02 02:44:52;;;;;;;12.30;8.60;;;;;;;;;;5119943;27;20023;-79
2023/06/02 02:47:17;;;;;;;9.02;7.65;;;;;;;;;;5118801;27;20249;-80
2023/06/02 02:49:43;;;;;;;14.82;8.13;;;;;;;;;;5109578;27;20118;-79
2023/06/02 02:52:08;;;;;;;10.63;8.13;;;;;;;;;;5110053;27;20035;-84
2023/06/02 02:54:33;;;;;;;9.73;7.60;;;;;;;;;;5114393;27;20039;-80
2023/06/02 02:57:00;;;;;;;8.98;8.05;;;;;;;;;;5103529;27;20429;-80
2023/06/02 02:59:26;;;;;;;11.82;8.63;;;;;;;;;;5118566;27;20020;-79
2023/06/02 03:01:51;;;;;;;10.55;8.68;;;;;;;;;;5118675;27;20105;-79
2023/06/02 03:04:18;;;;;;;14.73;8.45;;;;;;;;;;5118159;27;20027;-79
2023/06/02 03:06:45;;;;;;;17.42;10.05;;;;;;;;;;5119373;27;20058;-80
2023/06/02 03:09:11;;;;;;;16.98;8.68;;;;;;;;;;5119109;27;20085;-78
2023/06/02 03:11:36;;;;;;;10.45;9.38;;;;;;;;;;5119058;27;20445;-79
2023/06/02 03:14:01;;;;;;;15.85;10.85;;;;;;;;;;5117851;27;20027;-80
2023/06/02 03:16:28;;;;;;;11.57;9.35;;;;;;;;;;5109860;27;20040;-80
2023/06/02 03:18:53;;;;;;;13.80;9.43;;;;;;;;;;5103877;27;20055;-81
2023/06/02 03:21:19;;;;;;;13.85;9.48;;;;;;;;;;5109481;27;20122;-79
2023/06/02 03:23:45;;;;;;;11.93;9.02;;;;;;;;;;5085778;27;20039;-78
2023/06/02 03:26:11;;;;;;;13.63;9.70;;;;;;;;;;5117819;27;20027;-79
2023/06/02 03:28:37;;;;;;;13.93;10.20;;;;;;;;;;5119594;27;20038;-78
2023/06/02 03:31:02;;;;;;;10.10;8.73;;;;;;;;;;5119164;27;20039;-81
2023/06/02 03:33:27;;;;;;;10.85;9.82;;;;;;;;;;5117112;28;20029;-78
2023/06/02 03:35:53;;;;;;;9.65;8.23;;;;;;;;;;5098928;28;20027;-79
2023/06/02 03:38:18;;;;;;;9.93;8.88;;;;;;;;;;5092499;28;20068;-81
2023/06/02 03:40:43;;;;;;;10.82;8.45;;;;;;;;;;5109239;28;20100;-78
2023/06/02 03:43:09;;;;;;;19.80;9.13;;;;;;;;;;5110626;28;20046;-79
2023/06/02 03:45:34;;;;;;;16.80;9.15;;;;;;;;;;5110889;28;20023;-80
2023/06/02 03:48:00;;;;;;;15.95;8.02;;;;;;;;;;5119696;28;20030;-79
2023/06/02 03:50:25;;;;;;;18.95;8.07;;;;;;;;;;5116179;28;21171;-79
2023/06/02 03:52:50;;;;;;;14.05;7.60;;;;;;;;;;5100117;27;20412;-79
2023/06/02 03:55:16;;;;;;;12.52;8.60;;;;;;;;;;5107966;28;20346;-81
2023/06/02 03:57:41;;;;;;;13.52;8.43;;;;;;;;;;5110440;27;20337;-82
2023/06/02 04:00:10;;;;;;;14.25;8.77;;;;;;;;;;5099654;28;20031;-82
2023/06/02 04:02:35;;;;;;;17.40;8.60;;;;;;;;;;5100176;28;20031;-80
2023/06/02 04:05:01;;;;;;;8.82;7.97;;;;;;;;;;5102674;28;20045;-83
2023/06/02 04:07:26;;;;;;;9.63;8.15;;;;;;;;;;5097017;28;20082;-82
2023/06/02 04:09:51;;;;;;;14.07;8.63;;;;;;;;;;5100083;28;20034;-78
2023/06/02 04:12:17;;;;;;;10.55;8.35;;;;;;;;;;5098212;28;20449;-81
2023/06/02 04:14:42;;;;;;;13.77;9.35;;;;;;;;;;5105194;28;20974;-80
2023/06/02 04:17:07;;;;;;;11.05;9.70;;;;;;;;;;5117402;28;20034;-80
2023/06/02 04:19:33;;;;;;;15.05;9.48;;;;;;;;;;5119658;28;20114;-81
2023/06/02 04:21:58;;;;;;;13.35;10.52;;;;;;;;;;5103833;27;20034;-79
2023/06/02 04:24:23;;;;;;;11.10;9.82;;;;;;;;;;5107302;28;20027;-79
2023/06/02 04:26:49;;;;;;;14.85;9.98;;;;;;;;;;5123624;27;20027;-79
2023/06/02 04:29:14;;;;;;;9.50;8.60;;;;;;;;;;5120674;27;20023;-76
2023/06/02 04:31:43;;;;;;;10.80;9.25;;;;;;;;;;5122852;27;20429;-79
2023/06/02 04:34:12;;;;;;;14.60;8.75;;;;;;;;;;5121956;27;20446;-81
2023/06/02 04:36:38;;;;;;;16.20;9.27;;;;;;;;;;5120931;27;20341;-81
2023/06/02 04:39:07;;;;;;;13.60;9.38;;;;;;;;;;5124080;27;20052;-79
2023/06/02 04:41:33;;;;;;;12.65;10.20;;;;;;;;;;5121989;27;20035;-81
2023/06/02 04:43:58;;;;;;;12.35;11.05;;;;;;;;;;5102959;27;20456;-80
2023/06/02 04:46:26;;;;;;;12.40;10.20;;;;;;;;;;5118799;27;20084;-79
2023/06/02 04:48:52;;;;;;;11.20;10.10;;;;;;;;;;5120149;27;20031;-77
2023/06/02 04:51:17;;;;;;;15.55;11.15;;;;;;;;;;5121034;27;20446;-81
2023/06/02 04:53:43;;;;;;;14.57;11.23;;;;;;;;;;5122528;27;20087;-82
2023/06/02 04:56:09;;;;;;;12.57;10.05;;;;;;;;;;5122822;27;20059;-78
2023/06/02 04:58:34;;;;;;;14.68;10.23;;;;;;;;;;5120367;27;20083;-80
2023/06/02 05:01:00;;;;;;;17.90;10.80;;;;;;;;;;5118263;27;20028;-79
2023/06/02 05:03:25;;;;;;;18.83;12.20;;;;;;;;;;5121639;27;20062;-79
2023/06/02 05:05:51;;;;;;;14.75;11.40;;;;;;;;;;5122084;27;20105;-78
2023/06/02 05:08:16;;;;;;;11.45;10.25;;;;;;;;;;5118914;27;20043;-80
2023/06/02 05:10:41;;;;;;;14.45;10.43;;;;;;;;;;5118567;27;20034;-79
2023/06/02 05:13:07;;;;;;;12.68;10.63;;;;;;;;;;5119386;27;20027;-80
2023/06/02 05:15:32;;;;;;;11.40;9.60;;;;;;;;;;5105457;27;20031;-80
2023/06/02 05:17:57;;;;;;;10.05;9.05;;;;;;;;;;5103549;27;20454;-79
2023/06/02 05:20:23;;;;;;;9.82;8.85;;;;;;;;;;5100779;27;20070;-79
2023/06/02 05:22:48;;;;;;;14.15;9.77;;;;;;;;;;5101082;27;20315;-79
2023/06/02 05:25:14;;;;;;;10.60;9.25;;;;;;;;;;5100972;27;20378;-80
2023/06/02 05:27:39;;;;;;;9.85;8.80;;;;;;;;;;5100670;27;20023;-77
2023/06/02 05:30:05;;;;;;;11.48;8.27;;;;;;;;;;5098723;27;20031;-78
2023/06/02 05:32:30;;;;;;;11.50;8.63;;;;;;;;;;5100796;27;20466;-79
2023/06/02 05:34:56;;;;;;;9.48;8.52;;;;;;;;;;5101058;27;20031;-84
2023/06/02 05:37:21;;;;;;;12.02;8.68;;;;;;;;;;5098870;27;20054;-77
2023/06/02 05:39:46;;;;;;;10.65;8.57;;;;;;;;;;5100547;27;20044;-77
2023/06/02 05:42:12;;;;;;;10.60;8.55;;;;;;;;;;5119822;27;20031;-81
2023/06/02 05:44:37;;;;;;;10.13;9.13;;;;;;;;;;5103592;27;20058;-79
2023/06/02 05:47:03;;;;;;;9.23;7.90;;;;;;;;;;5097082;27;20034;-78
2023/06/02 05:49:28;;;;;;;12.95;8.77;;;;;;;;;;5089742;27;20763;-80
2023/06/02 05:51:53;;;;;;;10.52;8.38;;;;;;;;;;5107438;27;20031;-76
2023/06/02 05:54:19;;;;;;;12.55;8.75;;;;;;;;;;5121456;27;22448;-79
2023/06/02 05:56:44;;;;;;;10.88;8.48;;;;;;;;;;5117555;27;20024;-80
2023/06/02 05:59:09;;;;;;;9.93;7.72;;;;;;;;;;5107427;27;20362;-80
2023/06/02 06:01:35;;;;;;;9.45;8.48;;;;;;;;;;5114262;27;20091;-81
2023/06/02 06:04:01;;;;;;;15.35;8.18;;;;;;;;;;5117695;27;20421;-79
2023/06/02 06:06:27;;;;;;;9.77;7.60;;;;;;;;;;5108924;27;20613;-79
2023/06/02 06:08:52;;;;;;;9.18;7.57;;;;;;;;;;5111931;27;20061;-78
2023/06/02 06:11:18;;;;;;;9.18;8.23;;;;;;;;;;5119609;27;20450;-77
2023/06/02 06:13:43;;;;;;;9.38;7.03;;;;;;;;;;5117035;27;20456;-77
2023/06/02 06:16:08;;;;;;;9.25;7.75;;;;;;;;;;5116476;27;20045;-78
2023/06/02 06:18:34;;;;;;;12.30;8.60;;;;;;;;;;5114018;27;20030;-79
2023/06/02 06:21:00;;;;;;;11.25;8.55;;;;;;;;;;5118552;27;20037;-80
2023/06/02 06:23:25;;;;;;;9.40;8.45;;;;;;;;;;5119654;27;20019;-81
2023/06/02 06:25:51;;;;;;;13.02;10.25;;;;;;;;;;5119787;27;20122;-78
2023/06/02 06:28:16;;;;;;;14.75;12.55;;;;;;;;;;5117590;27;20119;-78
2023/06/02 06:30:42;;;;;;;16.35;10.63;;;;;;;;;;5117139;27;20036;-78
2023/06/02 06:33:08;;;;;;;11.70;9.73;;;;;;;;;;5110616;27;20824;-76
2023/06/02 06:35:34;;;;;;;15.88;13.27;;;;;;;;;;5113768;27;20452;-77
2023/06/02 06:38:00;;;;;;;11.63;9.20;;;;;;;;;;5118439;27;20023;-81
2023/06/02 06:40:25;;;;;;;13.35;9.80;;;;;;;;;;5118384;27;20053;-81
2023/06/02 06:42:50;;;;;;;12.38;9.30;;;;;;;;;;5117876;27;20425;-78
2023/06/02 06:45:16;;;;;;;11.43;9.52;;;;;;;;;;5119434;27;20350;-77
2023/06/02 06:47:41;;;;;;;10.55;8.02;;;;;;;;;;5117986;27;20055;-76
2023/06/02 06:50:07;;;;;;;10.05;8.77;;;;;;;;;;5098046;27;20019;-77
2023/06/02 06:52:32;;;;;;;13.48;8.27;;;;;;;;;;5117559;27;20495;-77
2023/06/02 06:54:57;;;;;;;12.18;9.43;;;;;;;;;;5116506;27;20030;-77
2023/06/02 06:57:23;;;;;;;12.63;9.65;;;;;;;;;;5121203;27;20054;-76
2023/06/02 06:59:48;;;;;;;9.93;8.60;;;;;;;;;;5119807;27;20023;-80
2023/06/02 07:02:13;;;;;;;10.98;8.40;;;;;;;;;;5118737;27;20043;-77
2023/06/02 07:04:39;;;;;;;11.38;8.07;;;;;;;;;;5117510;27;20505;-82
2023/06/02 07:07:05;;;;;;;10.52;8.27;;;;;;;;;;5117761;27;20643;-79
2023/06/02 07:09:30;;;;;;;9.82;8.50;;;;;;;;;;5116225;27;20015;-78
2023/06/02 07:11:56;;;;;;;9.02;7.93;;;;;;;;;;5120440;27;20022;-77
2023/06/02 07:14:22;;;;;;;10.02;7.50;;;;;;;;;;5120888;27;20063;-79
2023/06/02 07:16:49;;;;;;;12.43;8.00;;;;;;;;;;5120098;27;20470;-78
2023/06/02 07:19:14;;;;;;;10.23;8.05;;;;;;;;;;5117008;27;20468;-77
2023/06/02 07:21:40;;;;;;;8.48;7.68;;;;;;;;;;5118914;27;20063;-76
2023/06/02 07:24:05;;;;;;;13.48;7.95;;;;;;;;;;5120588;27;20031;-77
2023/06/02 07:26:31;;;;;;;9.55;7.85;;;;;;;;;;5118418;27;20047;-77
2023/06/02 07:28:56;;;;;;;11.32;7.80;;;;;;;;;;5116969;27;20069;-76
2023/06/02 07:31:21;;;;;;;8.90;7.30;;;;;;;;;;5118902;27;20474;-76
2023/06/02 07:33:47;;;;;;;11.23;7.30;;;;;;;;;;5118314;27;21140;-79
2023/06/02 07:36:12;;;;;;;9.50;7.20;;;;;;;;;;5117255;28;20078;-77
2023/06/02 07:38:37;;;;;;;8.88;6.72;;;;;;;;;;5118659;28;20019;-78
2023/06/02 07:41:03;;;;;;;9.52;7.00;;;;;;;;;;5120340;28;20118;-81
2023/06/02 07:43:28;;;;;;;8.13;7.07;;;;;;;;;;5116692;28;20037;-78
2023/06/02 07:45:54;;;;;;;6.45;5.90;;;;;;;;;;5118930;28;20019;-76
2023/06/02 07:48:20;;;;;;;7.47;6.22;;;;;;;;;;5117895;28;20031;-79
2023/06/02 07:50:45;;;;;;;7.07;6.00;;;;;;;;;;5116986;28;20027;-77
2023/06/02 07:53:10;;;;;;;6.90;5.90;;;;;;;;;;5117560;28;20331;-76
2023/06/02 07:55:36;;;;;;;12.05;6.15;;;;;;;;;;5119196;28;20026;-82
2023/06/02 07:58:01;;;;;;;6.97;6.30;;;;;;;;;;5119790;28;20106;-77
2023/06/02 08:00:27;;;;;;;8.20;6.38;;;;;;;;;;5118600;27;20049;-78
2023/06/02 08:02:52;;;;;;;6.97;5.90;;;;;;;;;;5121651;27;20031;-78
2023/06/02 08:05:18;;;;;;;9.13;6.43;;;;;;;;;;5123208;27;20087;-77
2023/06/02 08:07:44;;;;;;;8.35;7.50;;;;;;;;;;5123012;27;20054;-76
2023/06/02 08:10:10;;;;;;;7.78;6.78;;;;;;;;;;5123100;27;20167;-77
2023/06/02 08:12:35;;;;;;;7.95;6.47;;;;;;;;;;5120112;27;20338;-79
2023/06/02 08:15:01;;;;;;;6.50;5.80;;;;;;;;;;5123254;27;20087;-78
2023/06/02 08:17:29;;;;;;;6.57;5.78;;;;;;;;;;5122027;27;20090;-77
2023/06/02 08:19:58;;;;;;;8.65;6.45;;;;;;;;;;5122289;27;20129;-76
2023/06/02 08:22:25;;;;;;;9.63;6.70;;;;;;;;;;5122659;27;20027;-78
2023/06/02 08:24:52;;;;;;;8.02;6.18;;;;;;;;;;5123262;27;20079;-77
2023/06/02 08:27:18;;;;;;;8.52;6.57;;;;;;;;;;5122332;27;20023;-80
2023/06/02 08:29:44;;;;;;;6.45;5.90;;;;;;;;;;5123477;27;20023;-76
2023/06/02 08:32:09;;;;;;;9.43;6.75;;;;;;;;;;5123949;27;20042;-76
2023/06/02 08:34:36;;;;;;;6.90;6.03;;;;;;;;;;5119303;27;20028;-81
2023/06/02 08:37:01;;;;;;;6.18;5.57;;;;;;;;;;5124015;27;20027;-75
2023/06/02 08:39:28;;;;;;;8.50;6.53;;;;;;;;;;5119947;27;20095;-81
2023/06/02 08:41:55;;;;;;;8.68;6.60;;;;;;;;;;5122203;27;20038;-77
2023/06/02 08:44:21;;;;;;;10.23;6.38;;;;;;;;;;5115619;27;20039;-77
2023/06/02 08:46:47;;;;;;;6.07;5.57;;;;;;;;;;5100988;27;20355;-78
2023/06/02 08:49:18;;;;;;;7.50;6.05;;;;;;;;;;5100961;27;20028;-79
2023/06/02 08:51:44;;;;;;;6.90;6.18;;;;;;;;;;5099742;27;20442;-79
2023/06/02 08:54:11;;;;;;;6.97;6.28;;;;;;;;;;5106029;27;20096;-78
2023/06/02 08:56:37;;;;;;;10.63;6.40;;;;;;;;;;5121817;27;20058;-77
2023/06/02 08:59:02;;;;;;;6.57;5.97;;;;;;;;;;5122074;27;20077;-80
2023/06/02 09:01:28;;;;;;;6.70;5.97;;;;;;;;;;5120280;27;20038;-77
2023/06/02 09:03:53;;;;;;;7.88;6.03;;;;;;;;;;5119072;27;20420;-77
2023/06/02 09:06:23;;;;;;;6.85;6.15;;;;;;;;;;5120142;27;20051;-78
2023/06/02 09:08:48;;;;;;;;;;;;;;;;;;5117531;27;20058;-78
2023/06/02 09:11:15;;;;;;;8.17;5.90;;;;;;;;;;5120920;27;20330;-77
2023/06/02 09:13:40;;;;;;;6.80;6.10;;;;;;;;;;5121140;27;20081;-78
2023/06/02 09:16:05;;;;;;;6.72;6.10;;;;;;;;;;5118888;27;20023;-76
2023/06/02 09:18:31;;;;;;;8.77;5.90;;;;;;;;;;5119647;27;20035;-78
2023/06/02 09:20:59;;;;;;;9.73;6.07;;;;;;;;;;5121097;27;20030;-75
2023/06/02 09:23:44;;;;;;;7.38;6.30;;;;;;;;;;5121437;27;20042;-78
2023/06/02 09:26:22;;;;;;;7.97;6.90;;;;;;;;;;5123568;27;20035;-75
2023/06/02 09:29:03;;;;;;;10.77;8.05;;;;;;;;;;5119947;27;20019;-77
2023/06/02 09:31:41;;;;;;;10.05;7.78;;;;;;;;;;5119652;27;20035;-77
2023/06/02 09:34:07;;;;;;;7.93;6.63;;;;;;;;;;5122264;27;20019;-78
2023/06/02 09:36:32;;;;;;;7.47;5.78;;;;;;;;;;5118932;27;20321;-75
2023/06/02 09:38:57;;;;;;;10.40;6.82;;;;;;;;;;5123789;27;20019;-77
2023/06/02 09:41:28;;;;;;;9.75;7.40;;;;;;;;;;5122534;27;20038;-80
2023/06/02 09:43:54;;;;;;;7.55;6.70;;;;;;;;;;5120856;27;20036;-78
2023/06/02 09:46:20;;;;;;;8.88;6.32;;;;;;;;;;5118361;27;20461;-79
2023/06/02 09:48:55;;;;;;;7.88;6.80;;;;;;;;;;5120149;27;20050;-79
2023/06/02 09:51:24;;;;;;;9.52;5.72;;;;;;;;;;5121115;27;20031;-76
2023/06/02 09:53:50;;;;;;;;;;;;;;;;;;5122928;27;20026;-76
2023/06/02 09:56:15;;;;;;;8.45;6.68;;;;;;;;;;5121229;27;19911;-79
2023/06/02 09:58:41;;;;;;;8.35;6.30;;;;;;;;;;5122678;27;20042;-80
2023/06/02 10:01:06;;;;;;;12.20;7.10;;;;;;;;;;5121557;27;20030;-79
2023/06/02 10:03:32;;;;;;;6.28;5.68;;;;;;;;;;5120235;27;20110;-82
2023/06/02 10:06:12;;;;;;;9.38;5.88;;;;;;;;;;5121121;27;20524;-77
2023/06/02 10:08:49;;;;;;;8.43;7.63;;;;;;;;;;5113134;27;20047;-79
2023/06/02 10:11:33;;;;;;;8.35;6.25;;;;;;;;;;5097783;27;20031;-80
2023/06/02 10:14:01;;;;;;;6.95;6.05;;;;;;;;;;5109899;27;20022;-80
2023/06/02 10:16:45;;;;;;;9.30;6.45;;;;;;;;;;5119581;27;20049;-83
2023/06/02 10:19:11;;;;;;;6.15;5.65;;;;;;;;;;5118826;27;20147;-83
2023/06/02 10:21:45;;;;;;;5.80;5.20;;;;;;;;;;5120869;27;20055;-79
2023/06/02 10:24:17;;;;;;;7.50;6.53;;;;;;;;;;5118742;27;20038;-78
2023/06/02 10:26:42;;;;;;;7.57;5.75;;;;;;;;;;5119634;27;20027;-78
2023/06/02 10:29:08;;;;;;;5.70;5.20;;;;;;;;;;5120332;27;20462;-78
2023/06/02 10:31:33;;;;;;;11.25;6.78;;;;;;;;;;5119143;27;20022;-79
2023/06/02 10:34:00;;;;;;;5.88;5.28;;;;;;;;;;5117940;27;20023;-78
2023/06/02 10:36:26;;;;;;;8.98;5.70;;;;;;;;;;5120869;27;20126;-76
2023/06/02 10:38:52;;;;;;;8.55;4.68;;;;;;;;;;5118890;27;20152;-79
2023/06/02 10:41:21;;;;;;;6.55;5.10;;;;;;;;;;5105493;27;20159;-76
2023/06/02 10:44:05;;;;;;;7.95;6.68;;;;;;;;;;5118570;27;20043;-79
2023/06/02 10:46:31;;;;;;;6.60;5.30;;;;;;;;;;5120577;27;20421;-78
2023/06/02 10:48:56;;;;;;;5.43;4.93;;;;;;;;;;5120850;27;20027;-77
2023/06/02 10:51:22;;;;;;;5.68;5.03;;;;;;;;;;5120778;27;20027;-81
2023/06/02 10:54:02;;;;;;;6.13;4.45;;;;;;;;;;5118139;27;20357;-78
2023/06/02 10:56:38;;;;;;;5.78;5.22;;;;;;;;;;5120942;27;20046;-75
2023/06/02 10:59:04;;;;;;;9.75;6.05;;;;;;;;;;5121045;27;20023;-80
2023/06/02 11:01:45;;;;;;;5.90;5.13;;;;;;;;;;5119822;27;20354;-78
2023/06/02 11:04:26;;;;;;;8.82;5.30;;;;;;;;;;5119679;27;20039;-77
2023/06/02 11:07:28;;;;;;;6.32;5.43;;;;;;;;;;5116906;27;20034;-80
2023/06/02 11:09:58;;;;;;;6.00;5.00;;;;;;;;;;5020846;28;20044;-77
2023/06/02 11:12:57;;;;;;;5.60;5.10;;;;;;;;;;5019867;28;20044;-77
2023/06/02 11:15:24;;;;;;;6.25;4.93;;;;;;;;;;4958144;28;20161;-76
2023/06/02 11:17:49;;;;;;;4.63;4.07;;;;;;;;;;4955718;28;20505;-78
2023/06/02 11:20:15;;;;;;;6.70;5.60;;;;;;;;;;4962481;28;20056;-78
2023/06/02 11:22:41;;;;;;;5.68;4.75;;;;;;;;;;4962283;28;20022;-77
2023/06/02 11:25:07;;;;;;;5.50;5.00;;;;;;;;;;4961230;28;20038;-78
2023/06/02 11:27:40;;;;;;;6.00;5.38;;;;;;;;;;4962593;28;20027;-78
2023/06/02 11:30:08;;;;;;;5.03;4.60;;;;;;;;;;4958824;28;20031;-80
2023/06/02 11:32:33;;;;;;;5.85;5.30;;;;;;;;;;4962495;28;20042;-77
2023/06/02 11:35:02;;;;;;;5.78;5.15;;;;;;;;;;4960823;28;20031;-77
2023/06/02 11:37:27;;;;;;;;;;;;;;;;;;4951777;28;20039;-78
2023/06/02 11:39:53;;;;;;;5.90;5.30;;;;;;;;;;4949059;28;20249;-77
2023/06/02 11:42:18;;;;;;;6.45;4.95;;;;;;;;;;4954485;28;20399;-77
2023/06/02 11:44:48;;;;;;;6.63;5.30;;;;;;;;;;5000000;28;20100;-79
2023/06/02 11:47:16;;;;;;;9.35;4.80;;;;;;;;;;5004386;28;20362;-77
2023/06/02 11:49:42;;;;;;;5.18;4.68;;;;;;;;;;4996672;28;20033;-80
2023/06/02 11:52:08;;;;;;;5.18;4.78;;;;;;;;;;5095942;28;20485;-76
2023/06/02 11:54:47;;;;;;;5.78;4.82;;;;;;;;;;5095213;28;20046;-76
2023/06/02 11:57:12;;;;;;;7.85;5.40;;;;;;;;;;5093597;28;20019;-75
2023/06/02 11:59:38;;;;;;;7.93;5.20;;;;;;;;;;5098727;28;20027;-77
2023/06/02 12:02:03;;;;;;;5.45;4.63;;;;;;;;;;5094570;28;20036;-76
2023/06/02 12:04:29;;;;;;;5.25;4.85;;;;;;;;;;5088031;28;20063;-81
2023/06/02 12:06:54;;;;;;;5.85;4.85;;;;;;;;;;5094009;28;20024;-77
2023/06/02 12:09:19;;;;;;;8.85;5.03;;;;;;;;;;5096593;28;20146;-77
2023/06/02 12:11:45;;;;;;;5.38;4.88;;;;;;;;;;5098528;28;20420;-78
2023/06/02 12:14:11;;;;;;;6.07;5.43;;;;;;;;;;5097344;28;20148;-77
2023/06/02 12:16:40;;;;;;;5.40;4.75;;;;;;;;;;5095529;28;20043;-76
2023/06/02 12:19:11;;;;;;;8.27;7.47;;;;;;;;;;5098621;28;20106;-77
2023/06/02 12:21:39;;;;;;;5.85;5.22;;;;;;;;;;5095840;28;20161;-81
2023/06/02 12:24:05;;;;;;;8.37;5.03;;;;;;;;;;5095787;28;20110;-81
2023/06/02 12:26:44;;;;;;;10.35;5.32;;;;;;;;;;5095786;28;20094;-77
2023/06/02 12:29:09;;;;;;;5.75;5.25;;;;;;;;;;5097187;28;20096;-77
2023/06/02 12:31:35;;;;;;;5.72;5.22;;;;;;;;;;5096974;28;20400;-76
2023/06/02 12:34:00;;;;;;;7.85;5.47;;;;;;;;;;5097561;28;20047;-76
2023/06/02 12:36:26;;;;;;;5.90;5.40;;;;;;;;;;5095476;28;20031;-78
2023/06/02 12:38:52;;;;;;;5.38;4.88;;;;;;;;;;5099209;28;20019;-80
2023/06/02 12:41:17;;;;;;;5.90;5.35;;;;;;;;;;5100500;28;20031;-78
2023/06/02 12:43:42;;;;;;;6.97;5.28;;;;;;;;;;5096151;28;20470;-78
2023/06/02 12:46:11;;;;;;;5.40;4.90;;;;;;;;;;5095670;27;20027;-78
2023/06/02 12:48:36;;;;;;;8.98;4.80;;;;;;;;;;5102305;27;20033;-76
2023/06/02 12:51:02;;;;;;;4.65;4.00;;;;;;;;;;5098128;27;20428;-80
2023/06/02 12:53:27;;;;;;;5.03;4.53;;;;;;;;;;5089734;27;20026;-78
2023/06/02 12:55:52;;;;;;;7.13;5.82;;;;;;;;;;5115238;27;20032;-78
2023/06/02 12:58:18;;;;;;;5.93;4.88;;;;;;;;;;5123878;27;20019;-78
2023/06/02 13:00:43;;;;;;;7.65;5.38;;;;;;;;;;5113627;27;20031;-79
2023/06/02 13:03:09;;;;;;;6.15;5.38;;;;;;;;;;5109804;27;20115;-77
2023/06/02 13:05:35;;;;;;;6.85;5.60;;;;;;;;;;5122037;27;20483;-78
2023/06/02 13:08:01;;;;;;;8.43;5.95;;;;;;;;;;5122181;27;20043;-83
2023/06/02 13:10:26;;;;;;;11.75;6.65;;;;;;;;;;5123944;27;20103;-77
2023/06/02 13:12:52;;;;;;;7.53;5.93;;;;;;;;;;5121294;27;20083;-79
2023/06/02 13:15:19;;;;;;;11.02;8.00;;;;;;;;;;5122585;27;20087;-78
2023/06/02 13:17:44;;;;;;;17.25;9.40;;;;;;;;;;5120300;27;20027;-77
2023/06/02 13:20:10;;;;;;;15.35;11.68;;;;;;;;;;5120582;27;20019;-77
2023/06/02 13:22:35;;;;;;;13.25;10.82;;;;;;;;;;5120561;27;20065;-77
2023/06/02 13:25:01;;;;;;;18.52;10.35;;;;;;;;;;5119857;27;20065;-79
2023/06/02 13:27:27;;;;;;;19.25;10.63;;;;;;;;;;5117518;27;20069;-77
2023/06/02 13:29:53;;;;;;;16.95;11.05;;;;;;;;;;5117571;27;20026;-78
2023/06/02 13:32:18;;;;;;;13.57;9.95;;;;;;;;;;5119261;27;20020;-76
2023/06/02 13:34:54;;;;;;;16.95;9.25;;;;;;;;;;5124318;27;20443;-79
2023/06/02 13:37:19;;;;;;;9.48;8.45;;;;;;;;;;5120277;27;20345;-78
2023/06/02 13:39:45;;;;;;;13.30;9.75;;;;;;;;;;5121172;27;21159;-79
2023/06/02 13:42:10;;;;;;;20.65;10.02;;;;;;;;;;5120501;27;20091;-77
2023/06/02 13:44:35;;;;;;;18.15;11.35;;;;;;;;;;5120670;27;20022;-76
2023/06/02 13:47:00;;;;;;;20.70;11.02;;;;;;;;;;5122049;27;20085;-79
2023/06/02 13:49:26;;;;;;;13.73;10.80;;;;;;;;;;5119897;27;20034;-77
2023/06/02 13:51:51;;;;;;;15.02;10.60;;;;;;;;;;5120024;27;20031;-80
2023/06/02 13:54:17;;;;;;;12.63;9.68;;;;;;;;;;5122479;27;20027;-77
2023/06/02 13:56:43;;;;;;;16.88;10.57;;;;;;;;;;5109475;27;20031;-79
2023/06/02 13:59:09;;;;;;;13.35;11.35;;;;;;;;;;5101524;27;20041;-79
2023/06/02 14:01:34;;;;;;;14.90;10.95;;;;;;;;;;5118475;27;20031;-80
2023/06/02 14:03:59;;;;;;;13.15;10.07;;;;;;;;;;5115381;27;20111;-78
2023/06/02 14:06:25;;;;;;;12.82;9.13;;;;;;;;;;5104104;27;20023;-80
2023/06/02 14:08:50;;;;;;;11.48;9.15;;;;;;;;;;5105106;27;20034;-83
2023/06/02 14:11:16;;;;;;;10.60;9.48;;;;;;;;;;5101984;27;20019;-81
2023/06/02 14:13:41;;;;;;;15.05;10.57;;;;;;;;;;5103455;27;20034;-80
2023/06/02 14:16:06;;;;;;;12.52;8.57;;;;;;;;;;5101799;27;22470;-81
2023/06/02 14:18:32;;;;;;;14.15;9.45;;;;;;;;;;5105026;27;20289;-80
2023/06/02 14:20:57;;;;;;;14.68;9.23;;;;;;;;;;5101752;27;20049;-81
2023/06/02 14:23:22;;;;;;;11.93;8.20;;;;;;;;;;5099645;27;20051;-82
2023/06/02 14:25:48;;;;;;;10.80;9.07;;;;;;;;;;5100844;27;20031;-81
2023/06/02 14:28:13;;;;;;;10.50;8.95;;;;;;;;;;5101277;27;20034;-80
2023/06/02 14:30:38;;;;;;;12.27;9.93;;;;;;;;;;5100238;27;20027;-83
2023/06/02 14:33:04;;;;;;;13.25;9.50;;;;;;;;;;5090439;27;20135;-85